Time;durP1;ratioP1;P1;durP2;ratioP2;P2;SDS_P1;SDS_P2;PMS_P1;PMS_P2;Temp;Humidity;BMP_temperature;BMP_pressure;BME280_temperature;BME280_humidity;BME280_pressure;Samples;Min_cycle;Max_cycle;Signal;HPM_P1;HPM_P2
2022/12/09 03:02:32;;;;;;;17.10;10.48;;;;;;;-0.47;88.08;99347.09;1774730;79;22766;-38
2022/12/09 03:05:24;;;;;;;16.15;11.03;;;;;;;-0.32;87.28;99358.63;1774022;80;21569;-38
2022/12/09 03:08:20;;;;;;;18.52;11.65;;;;;;;-0.28;87.43;99359.63;1791315;80;21141;-38
2022/12/09 03:11:09;;;;;;;15.68;11.25;;;;;;;-0.22;87.44;99356.61;1791256;80;20936;-38
2022/12/09 03:14:02;;;;;;;17.23;11.05;;;;;;;-0.16;87.19;99352.80;1791453;80;21024;-38
2022/12/09 03:16:38;;;;;;;17.50;11.50;;;;;;;-0.05;86.68;99354.78;1791298;80;20996;-38
2022/12/09 03:19:29;;;;;;;18.55;12.53;;;;;;;-0.02;86.24;99354.19;1791574;80;21537;-38
2022/12/09 03:21:59;;;;;;;16.37;11.38;;;;;;;0.00;85.87;99350.71;1767354;80;21123;-38
2022/12/09 03:24:32;;;;;;;18.17;11.97;;;;;;;0.08;85.42;99352.70;1788665;80;21567;-38
2022/12/09 03:26:59;;;;;;;21.12;12.18;;;;;;;0.18;84.95;99357.88;1788420;80;20973;-38
2022/12/09 03:29:26;;;;;;;22.32;12.53;;;;;;;0.24;84.41;99358.03;1757924;80;20921;-38
2022/12/09 03:31:54;;;;;;;25.60;11.50;;;;;;;0.29;84.17;99363.28;1788380;80;20981;-38
2022/12/09 03:34:25;;;;;;;16.50;10.75;;;;;;;0.34;83.79;99355.73;1788445;80;23207;-38
2022/12/09 03:36:51;;;;;;;18.40;12.20;;;;;;;0.36;83.18;99361.05;1788367;80;21572;-38
2022/12/09 03:39:22;;;;;;;17.42;11.97;;;;;;;0.40;82.66;99355.38;1788285;80;20977;-38
2022/12/09 03:41:52;;;;;;;18.30;11.60;;;;;;;0.47;82.54;99356.34;1788181;80;21032;-38
2022/12/09 03:44:27;;;;;;;18.57;11.40;;;;;;;0.51;82.19;99353.87;1788553;80;21012;-38
2022/12/09 03:46:54;;;;;;;16.95;11.18;;;;;;;0.50;81.87;99351.73;1788182;80;21005;-38
2022/12/09 03:49:21;;;;;;;17.25;11.20;;;;;;;0.50;81.36;99346.95;1788184;80;20947;-39
2022/12/09 03:52:05;;;;;;;20.82;11.73;;;;;;;0.57;80.89;99352.70;1788144;80;21573;-38
2022/12/09 03:54:43;;;;;;;22.40;11.28;;;;;;;0.59;80.29;99343.84;1788214;80;21043;-38
2022/12/09 03:57:15;;;;;;;20.12;12.07;;;;;;;0.50;80.03;99341.08;1788410;80;21040;-39
2022/12/09 03:59:44;;;;;;;15.18;10.78;;;;;;;0.47;79.86;99346.20;1788297;80;21212;-38
2022/12/09 04:02:10;;;;;;;16.12;11.38;;;;;;;0.53;79.62;99342.38;1784190;80;21479;-38
2022/12/09 04:04:39;;;;;;;14.63;10.60;;;;;;;0.56;79.16;99337.78;1783137;80;21024;-39
2022/12/09 04:07:07;;;;;;;14.90;10.30;;;;;;;0.53;78.87;99338.37;1783079;80;21089;-38
2022/12/09 04:09:34;;;;;;;13.05;9.23;;;;;;;0.51;78.49;99337.86;1783198;80;21002;-38
2022/12/09 04:12:02;;;;;;;12.80;8.85;;;;;;;0.47;78.11;99334.20;1783010;80;21012;-38
2022/12/09 04:14:29;;;;;;;16.12;10.08;;;;;;;0.42;77.72;99327.09;1782527;80;20969;-39
2022/12/09 04:16:56;;;;;;;15.95;11.00;;;;;;;0.37;77.70;99325.30;1782509;80;20953;-38
2022/12/09 04:19:23;;;;;;;15.43;10.75;;;;;;;0.40;77.55;99322.58;1782532;80;21005;-39
2022/12/09 04:21:49;;;;;;;28.12;12.90;;;;;;;0.38;77.59;99318.89;1782414;80;21016;-38
2022/12/09 04:24:16;;;;;;;18.42;12.78;;;;;;;0.40;77.53;99323.37;1782476;80;23164;-38
2022/12/09 04:26:43;;;;;;;21.60;13.00;;;;;;;0.36;77.34;99322.37;1782605;80;21491;-38
2022/12/09 04:29:11;;;;;;;19.37;12.73;;;;;;;0.29;77.42;99316.63;1783126;80;21045;-38
2022/12/09 04:31:37;;;;;;;19.37;12.75;;;;;;;0.24;77.50;99315.94;1782900;80;21016;-39
2022/12/09 04:34:04;;;;;;;24.02;12.90;;;;;;;0.17;77.57;99315.52;1782903;80;21060;-38
2022/12/09 04:36:31;;;;;;;17.77;12.20;;;;;;;0.14;77.68;99316.90;1782767;80;21193;-38
2022/12/09 04:38:58;;;;;;;16.67;11.35;;;;;;;0.12;77.89;99316.39;1782863;80;21502;-38
2022/12/09 04:41:25;;;;;;;17.42;11.05;;;;;;;0.14;77.95;99311.57;1782830;80;20914;-38
2022/12/09 04:43:51;;;;;;;17.48;11.90;;;;;;;0.15;77.73;99311.00;1782691;80;21514;-38
2022/12/09 04:46:18;;;;;;;16.65;11.30;;;;;;;0.16;77.59;99310.72;1782699;80;21006;-38
2022/12/09 04:48:45;;;;;;;16.67;11.03;;;;;;;0.17;77.52;99307.52;1754086;80;23180;-39
2022/12/09 04:51:13;;;;;;;14.15;10.32;;;;;;;0.14;77.52;99300.11;1782436;80;21028;-38
2022/12/09 04:53:39;;;;;;;13.55;9.88;;;;;;;0.09;77.46;99300.99;1782609;80;21025;-39
2022/12/09 04:56:12;;;;;;;14.18;9.85;;;;;;;0.07;77.30;99299.69;1782665;80;21036;-38
2022/12/09 04:58:43;;;;;;;17.02;11.53;;;;;;;0.06;77.32;99304.22;1782660;80;20957;-38
2022/12/09 05:01:12;;;;;;;18.12;11.95;;;;;;;0.11;77.16;99301.47;1780493;80;23180;-38
2022/12/09 05:03:39;;;;;;;17.45;11.65;;;;;;;0.10;76.92;99301.22;1774436;80;21040;-38
2022/12/09 05:06:09;;;;;;;17.10;11.70;;;;;;;0.04;76.91;99298.41;1773936;80;20961;-38
2022/12/09 05:08:36;;;;;;;17.55;11.97;;;;;;;0.00;77.08;99296.08;1774328;80;21020;-38
2022/12/09 05:11:04;;;;;;;15.05;10.98;;;;;;;-0.01;76.99;99295.28;1773956;80;21091;-38
2022/12/09 05:13:31;;;;;;;14.80;10.90;;;;;;;-0.06;77.09;99282.04;1774436;80;21195;-38
2022/12/09 05:16:01;;;;;;;14.68;10.23;;;;;;;-0.05;77.07;99292.16;1774003;80;20934;-39
2022/12/09 05:18:28;;;;;;;14.38;9.68;;;;;;;-0.06;76.93;99282.58;1774207;80;28263;-39
2022/12/09 05:20:56;;;;;;;14.83;10.23;;;;;;;-0.15;76.69;99279.80;1774042;80;21016;-39
2022/12/09 05:23:22;;;;;;;14.18;10.40;;;;;;;-0.24;76.88;99278.08;1773952;80;21024;-38
2022/12/09 05:25:49;;;;;;;14.63;10.55;;;;;;;-0.27;76.98;99286.09;1773965;80;21250;-38
2022/12/09 05:28:17;;;;;;;12.90;9.33;;;;;;;-0.25;77.29;99276.49;1774019;80;21009;-39
2022/12/09 05:30:43;;;;;;;11.35;8.63;;;;;;;-0.24;77.07;99280.17;1774081;80;21020;-38
2022/12/09 05:33:10;;;;;;;10.05;7.55;;;;;;;-0.27;77.01;99283.97;1774291;80;20941;-38
2022/12/09 05:35:36;;;;;;;8.98;6.97;;;;;;;-0.27;77.07;99290.63;1774149;80;21010;-38
2022/12/09 05:38:03;;;;;;;8.35;6.58;;;;;;;-0.27;76.76;99289.30;1774049;80;21138;-38
2022/12/09 05:40:30;;;;;;;8.63;6.40;;;;;;;-0.25;76.67;99299.92;1774009;80;20926;-38
2022/12/09 05:42:57;;;;;;;7.60;6.70;;;;;;;-0.23;76.47;99295.62;1774094;80;21085;-38
2022/12/09 05:45:24;;;;;;;7.37;5.90;;;;;;;-0.21;76.46;99294.80;1774097;80;21002;-38
2022/12/09 05:47:50;;;;;;;7.97;6.28;;;;;;;-0.16;76.34;99284.86;1773850;80;20986;-38
2022/12/09 05:50:17;;;;;;;9.00;6.75;;;;;;;-0.13;76.21;99279.48;1774099;80;21188;-39
2022/12/09 05:52:44;;;;;;;9.08;6.90;;;;;;;-0.13;75.81;99283.48;1773903;80;21080;-38
2022/12/09 05:55:10;;;;;;;9.18;6.80;;;;;;;-0.18;75.73;99279.02;1774159;80;20941;-38
2022/12/09 05:57:37;;;;;;;8.75;6.95;;;;;;;-0.25;75.65;99281.28;1774054;80;20965;-38
2022/12/09 06:00:06;;;;;;;10.70;7.35;;;;;;;-0.30;75.53;99283.22;1773993;80;21016;-38
2022/12/09 06:02:35;;;;;;;11.22;8.03;;;;;;;-0.36;75.72;99283.84;1773344;80;23217;-38
2022/12/09 06:05:03;;;;;;;9.28;7.30;;;;;;;-0.33;75.69;99283.78;1774040;80;21495;-39
2022/12/09 06:07:29;;;;;;;10.68;7.67;;;;;;;-0.36;75.63;99287.04;1774447;80;21073;-38
2022/12/09 06:09:56;;;;;;;11.60;8.25;;;;;;;-0.35;75.73;99289.96;1773917;80;21033;-39
2022/12/09 06:12:24;;;;;;;10.93;8.13;;;;;;;-0.32;75.92;99287.50;1773957;80;21044;-38
2022/12/09 06:14:51;;;;;;;10.20;7.75;;;;;;;-0.23;75.83;99290.30;1774121;80;21238;-38
2022/12/09 06:17:18;;;;;;;11.08;8.43;;;;;;;-0.21;75.79;99288.94;1774258;80;21016;-38
2022/12/09 17:29:47;;;;;;;71.87;38.00;;;;;;;1.23;89.03;99011.80;1755279;80;21999;-40
2022/12/09 17:32:14;;;;;;;58.48;33.33;;;;;;;1.38;88.23;99007.94;1743803;81;21019;-39
2022/12/09 17:34:40;;;;;;;56.18;31.85;;;;;;;1.36;88.58;99003.45;1761306;81;21470;-39
2022/12/09 17:37:07;;;;;;;58.60;31.65;;;;;;;1.39;88.79;99005.52;1752777;81;21097;-39
2022/12/09 17:39:34;;;;;;;62.20;32.08;;;;;;;1.45;88.57;99002.96;1752724;81;20929;-39
2022/12/09 17:42:00;;;;;;;76.65;34.48;;;;;;;1.51;88.16;99000.38;1752694;81;21068;-39
2022/12/09 17:44:27;;;;;;;74.90;38.30;;;;;;;1.52;88.03;98993.94;1752731;81;20964;-39
2022/12/09 17:46:54;;;;;;;73.02;36.25;;;;;;;1.52;88.05;98989.94;1752743;81;21148;-39
2022/12/09 17:49:21;;;;;;;60.08;32.88;;;;;;;1.52;87.93;98998.73;1752631;81;21510;-40
2022/12/09 17:51:49;;;;;;;63.80;33.15;;;;;;;1.63;87.66;98992.58;1752752;81;21072;-40
2022/12/09 17:54:16;;;;;;;62.50;37.00;;;;;;;1.70;87.32;98988.89;1752841;81;21036;-40
2022/12/09 17:56:45;;;;;;;75.57;41.02;;;;;;;1.72;87.17;98990.72;1752985;81;21514;-40
2022/12/09 17:59:14;;;;;;;62.30;34.73;;;;;;;1.72;87.03;98990.72;1752857;81;21105;-40
2022/12/09 18:01:42;;;;;;;57.98;32.85;;;;;;;1.74;86.91;98989.88;1753062;81;21507;-40
2022/12/09 18:04:09;;;;;;;63.23;32.75;;;;;;;1.84;86.50;98990.89;1752942;81;20964;-40
2022/12/09 18:06:40;;;;;;;58.28;32.83;;;;;;;1.92;86.17;98987.47;1752910;81;20941;-40
2022/12/09 18:09:09;;;;;;;62.00;33.10;;;;;;;1.94;86.06;98991.16;1752394;81;21009;-40
2022/12/09 18:11:36;;;;;;;56.23;30.55;;;;;;;1.95;85.90;98988.17;1752838;81;22543;-40
2022/12/09 18:14:04;;;;;;;49.93;30.02;;;;;;;1.98;85.57;98980.89;1752892;81;20917;-40
2022/12/09 18:16:31;;;;;;;51.25;30.50;;;;;;;2.04;85.04;98986.30;1753161;81;20994;-40
2022/12/09 18:19:09;;;;;;;52.73;31.52;;;;;;;2.09;84.82;98991.50;1752593;81;21080;-40
2022/12/09 18:21:35;;;;;;;60.17;32.28;;;;;;;2.12;84.90;98996.80;1747183;81;20937;-40
2022/12/09 18:24:03;;;;;;;55.43;31.02;;;;;;;2.16;84.85;98996.41;1752639;81;21297;-40
2022/12/09 18:26:29;;;;;;;52.17;30.57;;;;;;;2.25;84.47;99003.09;1752634;81;21593;-40
2022/12/09 18:28:56;;;;;;;55.12;29.77;;;;;;;2.36;84.05;99000.36;1758446;81;21031;-40
2022/12/09 18:31:26;;;;;;;57.30;30.02;;;;;;;2.45;83.55;99005.95;1758765;81;21454;-40
2022/12/09 18:33:53;;;;;;;54.13;28.32;;;;;;;2.47;83.23;99006.98;1747158;82;21041;-40
2022/12/09 18:36:25;;;;;;;51.08;29.50;;;;;;;2.49;83.03;99015.47;1747142;82;21140;-40
2022/12/09 18:38:52;;;;;;;48.05;27.17;;;;;;;2.46;82.56;99019.57;1731992;82;21565;-40
2022/12/09 18:41:24;;;;;;;51.70;28.30;;;;;;;2.48;82.29;99011.20;1732005;82;21000;-40
2022/12/09 18:43:52;;;;;;;51.80;28.98;;;;;;;2.57;82.06;99013.33;1731647;82;20993;-40
2022/12/09 18:46:23;;;;;;;49.50;29.45;;;;;;;2.66;81.63;99015.48;1763685;81;21710;-40
2022/12/09 18:48:58;;;;;;;55.85;29.65;;;;;;;2.63;81.28;99001.38;1731875;82;21153;-40
2022/12/09 18:51:25;;;;;;;54.45;30.57;;;;;;;2.62;81.30;98995.78;1763593;81;21643;-40
2022/12/09 18:53:52;;;;;;;55.20;29.48;;;;;;;2.61;81.16;98992.31;1753167;81;21026;-40
2022/12/09 18:56:19;;;;;;;49.45;28.62;;;;;;;2.62;80.85;98991.77;1747214;82;20980;-40
2022/12/09 18:58:46;;;;;;;54.18;30.48;;;;;;;2.70;80.63;98989.66;1732060;82;21568;-40
2022/12/09 19:01:19;;;;;;;56.28;30.97;;;;;;;2.77;80.41;98991.29;1732155;82;21212;-40
2022/12/09 19:03:46;;;;;;;57.27;30.82;;;;;;;2.77;80.03;98990.50;1763864;81;21609;-40
2022/12/09 19:06:32;;;;;;;59.63;32.10;;;;;;;2.71;79.92;98985.86;1732062;82;21009;-40
2022/12/09 19:09:09;;;;;;;63.08;32.30;;;;;;;2.71;79.88;98984.52;1732489;82;20957;-40
2022/12/09 19:11:37;;;;;;;53.95;30.10;;;;;;;2.71;79.43;98977.83;1763759;81;21036;-40
2022/12/09 19:14:05;;;;;;;54.70;30.70;;;;;;;2.70;79.21;98977.61;1732348;82;21182;-40
2022/12/09 19:16:33;;;;;;;56.70;31.10;;;;;;;2.72;79.13;98979.41;1763667;81;21027;-40
2022/12/09 19:18:59;;;;;;;67.32;35.30;;;;;;;2.71;79.18;98972.47;1759077;81;21023;-40
2022/12/09 19:21:26;;;;;;;62.43;32.85;;;;;;;2.70;79.00;98964.23;1747359;82;20985;-40
2022/12/09 19:23:53;;;;;;;54.50;30.37;;;;;;;2.64;78.96;98966.83;1732237;82;21565;-40
2022/12/09 19:26:27;;;;;;;56.18;30.17;;;;;;;2.63;79.15;98969.27;1763665;81;21108;-40
2022/12/09 19:28:57;;;;;;;55.60;31.20;;;;;;;2.71;78.80;98964.44;1742893;81;20968;-40
2022/12/09 19:31:30;;;;;;;60.23;31.87;;;;;;;2.75;78.67;98958.72;1744592;82;21020;-40
2022/12/09 19:33:59;;;;;;;62.62;32.53;;;;;;;2.75;78.62;98957.37;1744438;82;21507;-40
2022/12/09 19:36:28;;;;;;;69.25;32.90;;;;;;;2.70;78.49;98946.84;1744868;82;21080;-40
2022/12/09 19:38:56;;;;;;;60.03;31.35;;;;;;;2.62;78.47;98946.27;1744912;82;21091;-40
2022/12/09 19:41:23;;;;;;;53.28;30.35;;;;;;;2.59;78.34;98948.25;1744483;82;21014;-40
2022/12/09 19:43:57;;;;;;;61.95;30.88;;;;;;;2.65;78.34;98952.90;1744512;82;21557;-40
2022/12/09 19:46:25;;;;;;;65.80;32.73;;;;;;;2.70;78.22;98950.84;1744630;82;21098;-40
2022/12/09 19:48:52;;;;;;;56.60;31.12;;;;;;;2.69;78.28;98943.13;1744396;82;21032;-40
2022/12/09 19:51:19;;;;;;;66.47;32.60;;;;;;;2.62;78.22;98940.92;1744532;82;21292;-40
2022/12/09 19:53:46;;;;;;;55.88;30.43;;;;;;;2.53;78.23;98944.16;1744387;82;20968;-40
2022/12/09 19:56:16;;;;;;;53.35;30.02;;;;;;;2.48;78.20;98944.32;1744645;82;20989;-40
2022/12/09 19:58:43;;;;;;;;;;;;;;;2.52;78.19;98954.63;1746981;82;21001;-40
2022/12/09 20:01:24;;;;;;;49.58;29.30;;;;;;;2.54;78.25;98950.55;1744424;82;20174;-40
2022/12/09 20:04:02;;;;;;;65.80;31.30;;;;;;;2.43;78.73;98955.97;1744502;82;21209;-40
2022/12/09 20:06:30;;;;;;;62.50;31.70;;;;;;;2.41;78.81;98954.18;1741402;82;21530;-40
2022/12/09 20:08:59;;;;;;;55.73;30.15;;;;;;;2.41;78.89;98956.06;1744356;82;20981;-40
2022/12/09 20:11:25;;;;;;;54.53;29.72;;;;;;;2.41;78.77;98962.75;1744449;82;21343;-40
2022/12/09 20:13:52;;;;;;;51.05;28.40;;;;;;;2.47;78.67;98962.27;1744354;82;21076;-40
2022/12/09 20:16:21;;;;;;;57.33;31.73;;;;;;;2.53;78.49;98962.89;1744383;82;21204;-40
2022/12/09 20:18:49;;;;;;;67.03;33.67;;;;;;;2.56;78.55;98952.91;1744623;82;20961;-40
2022/12/09 20:21:17;;;;;;;59.08;31.93;;;;;;;2.53;78.49;98946.84;1744813;82;21020;-40
2022/12/09 20:23:45;;;;;;;54.25;30.05;;;;;;;2.49;78.56;98947.23;1744336;82;20981;-40
2022/12/09 20:26:15;;;;;;;55.88;30.55;;;;;;;2.51;78.55;98945.05;1744877;82;21052;-40
2022/12/09 20:28:43;;;;;;;54.30;31.82;;;;;;;2.58;78.35;98944.00;1744263;81;21243;-40
2022/12/09 20:31:13;;;;;;;57.85;32.38;;;;;;;2.59;78.18;98941.56;1744358;82;21073;-40
2022/12/09 20:33:40;;;;;;;60.92;32.55;;;;;;;2.57;78.41;98943.77;1744396;82;20921;-40
2022/12/09 20:36:16;;;;;;;62.15;31.75;;;;;;;2.53;78.48;98945.50;1739112;82;21028;-40
2022/12/09 20:38:45;;;;;;;55.78;31.60;;;;;;;2.52;78.48;98955.96;1744507;82;21084;-40
2022/12/09 20:41:12;;;;;;;53.05;29.82;;;;;;;2.53;78.59;98959.67;1744584;82;21239;-40
2022/12/09 20:43:40;;;;;;;53.20;30.25;;;;;;;2.60;78.42;98957.31;1744483;82;21487;-40
2022/12/09 20:46:20;;;;;;;60.12;31.85;;;;;;;2.66;78.32;98971.87;1744519;82;21032;-40
2022/12/09 20:48:47;;;;;;;58.13;31.33;;;;;;;2.69;78.48;98971.23;1743692;82;20949;-40
2022/12/09 20:51:26;;;;;;;67.00;33.33;;;;;;;2.73;78.45;98965.47;1744727;82;21076;-40
2022/12/09 20:53:53;;;;;;;60.63;32.70;;;;;;;2.73;78.45;98953.43;1744083;82;22069;-40
2022/12/09 20:56:21;;;;;;;60.05;32.50;;;;;;;2.72;78.17;98962.55;1744699;82;20931;-40
2022/12/09 20:58:49;;;;;;;53.48;30.08;;;;;;;2.78;77.97;98960.75;1744296;82;20976;-40
2022/12/09 21:01:28;;;;;;;59.05;31.85;;;;;;;2.84;77.79;98958.14;1744573;82;20969;-40
2022/12/09 21:03:56;;;;;;;65.50;31.85;;;;;;;2.88;77.81;98946.23;1744245;82;21009;-41
2022/12/09 21:06:25;;;;;;;58.52;32.45;;;;;;;2.88;77.68;98944.35;1744601;82;21487;-40
2022/12/09 21:08:52;;;;;;;57.50;31.23;;;;;;;2.84;77.58;98955.47;1744460;82;20977;-41
2022/12/09 21:11:23;;;;;;;56.35;31.90;;;;;;;2.88;77.47;98966.32;1744252;82;21021;-40
2022/12/09 21:13:55;;;;;;;52.60;29.98;;;;;;;2.93;77.26;98965.60;1744372;82;21025;-41
2022/12/09 21:16:24;;;;;;;54.18;30.43;;;;;;;2.97;77.05;98959.84;1743344;82;21009;-41
2022/12/09 21:18:53;;;;;;;58.98;31.42;;;;;;;2.94;77.04;98955.13;1744493;82;21224;-41
2022/12/09 21:21:21;;;;;;;60.60;31.93;;;;;;;2.89;76.88;98953.97;1744642;82;20961;-41
2022/12/09 21:23:49;;;;;;;70.37;33.83;;;;;;;2.82;77.02;98953.65;1744364;82;20997;-40
2022/12/09 21:26:17;;;;;;;54.15;30.90;;;;;;;2.79;77.23;98946.27;1744355;82;21021;-40
2022/12/09 21:28:45;;;;;;;57.78;31.07;;;;;;;2.76;77.21;98945.55;1744325;82;21041;-41
2022/12/09 21:31:23;;;;;;;63.13;34.70;;;;;;;2.81;77.11;98940.02;1744668;82;21198;-40
2022/12/09 21:33:51;;;;;;;58.50;33.58;;;;;;;2.82;77.01;98936.25;1744675;82;21033;-40
2022/12/09 21:36:22;;;;;;;63.92;32.93;;;;;;;2.73;77.06;98934.14;1744979;82;21020;-40
2022/12/09 21:38:49;;;;;;;60.83;32.40;;;;;;;2.68;77.38;98941.00;1744688;82;21503;-40
2022/12/09 21:41:19;;;;;;;57.58;30.85;;;;;;;2.70;77.51;98933.45;1744824;82;21021;-40
2022/12/09 21:43:46;;;;;;;56.63;31.45;;;;;;;2.73;77.52;98934.14;1744705;82;21137;-40
2022/12/09 21:46:17;;;;;;;53.95;30.37;;;;;;;2.80;77.29;98939.81;1744575;82;21307;-40
2022/12/09 21:48:46;;;;;;;53.68;29.72;;;;;;;2.86;77.26;98945.21;1744629;82;20930;-40
2022/12/09 21:51:14;;;;;;;60.33;32.00;;;;;;;2.86;77.23;98943.88;1744727;82;21538;-40
2022/12/09 21:53:41;;;;;;;54.08;30.52;;;;;;;2.85;77.31;98940.98;1744506;82;21006;-40
2022/12/09 21:56:14;;;;;;;55.60;30.37;;;;;;;2.83;77.13;98932.47;1744730;82;21291;-40
2022/12/09 21:58:43;;;;;;;53.23;29.50;;;;;;;2.87;77.06;98932.61;1744356;82;20972;-40
2022/12/09 22:01:21;;;;;;;56.33;30.60;;;;;;;2.90;76.77;98930.11;1744583;82;21016;-40
2022/12/09 22:03:48;;;;;;;58.20;32.50;;;;;;;2.93;76.76;98913.94;1744483;82;21577;-40
2022/12/09 22:06:15;;;;;;;59.10;30.82;;;;;;;2.93;76.83;98908.04;1744707;82;21052;-40
2022/12/09 22:08:42;;;;;;;57.48;31.90;;;;;;;2.94;76.71;98910.95;1744771;82;21088;-40
2022/12/09 22:11:12;;;;;;;59.88;31.80;;;;;;;2.87;76.54;98908.52;1744713;82;21020;-40
2022/12/09 22:13:39;;;;;;;57.93;31.05;;;;;;;2.79;76.52;98899.42;1744714;82;21087;-40
2022/12/09 22:16:10;;;;;;;46.77;27.67;;;;;;;2.75;76.69;98891.80;1744627;82;21630;-40
2022/12/09 22:18:38;;;;;;;51.58;29.60;;;;;;;2.76;76.59;98890.67;1744669;82;21474;-41
2022/12/09 22:21:09;;;;;;;52.05;30.08;;;;;;;2.77;76.60;98878.87;1744908;82;21239;-40
2022/12/09 22:23:36;;;;;;;53.78;29.82;;;;;;;2.72;76.86;98880.37;1745041;82;21482;-40
2022/12/09 22:26:08;;;;;;;53.35;29.80;;;;;;;2.68;77.12;98874.09;1744958;82;20980;-40
2022/12/09 22:28:35;;;;;;;46.05;27.17;;;;;;;2.63;77.21;98876.39;1744776;82;21047;-40
2022/12/09 22:31:12;;;;;;;45.30;26.48;;;;;;;2.65;77.32;98881.98;1744617;82;21582;-40
2022/12/09 22:33:39;;;;;;;49.90;27.40;;;;;;;2.71;77.21;98874.78;1744541;82;21494;-40
2022/12/09 22:36:08;;;;;;;46.05;27.27;;;;;;;2.76;77.14;98865.82;1744440;82;21072;-40
2022/12/09 22:38:37;;;;;;;47.05;27.32;;;;;;;2.75;77.21;98868.27;1744477;82;20996;-40
2022/12/09 22:41:13;;;;;;;49.30;27.60;;;;;;;2.70;77.21;98871.90;1744339;82;21554;-40
2022/12/09 22:43:40;;;;;;;49.03;27.45;;;;;;;2.67;77.43;98871.17;1743965;82;21096;-40
2022/12/09 22:46:11;;;;;;;48.60;27.98;;;;;;;2.68;77.32;98868.74;1738851;82;21232;-40
2022/12/09 22:48:38;;;;;;;43.52;27.00;;;;;;;2.72;77.18;98863.53;1744646;82;21008;-40
2022/12/09 22:51:23;;;;;;;46.08;27.00;;;;;;;2.73;77.25;98871.25;1744353;82;20980;-40
2022/12/09 22:53:51;;;;;;;48.85;27.07;;;;;;;2.72;77.30;98872.34;1744416;82;21060;-41
2022/12/09 22:56:18;;;;;;;49.93;27.58;;;;;;;2.71;77.51;98868.09;1744658;82;21021;-40
2022/12/09 22:58:45;;;;;;;44.27;26.60;;;;;;;2.71;77.44;98866.00;1744388;82;21234;-40
2022/12/09 23:01:16;;;;;;;44.45;25.65;;;;;;;2.68;77.38;98875.98;1744502;82;21553;-40
2022/12/09 23:03:43;;;;;;;42.78;25.37;;;;;;;2.75;77.30;98881.09;1744313;82;20981;-41
2022/12/09 23:06:09;;;;;;;46.98;26.15;;;;;;;2.81;77.24;98879.03;1744428;82;20966;-40
2022/12/09 23:08:38;;;;;;;47.60;26.97;;;;;;;2.85;77.35;98876.73;1744585;82;21017;-40
2022/12/09 23:11:09;;;;;;;47.78;27.42;;;;;;;2.86;77.28;98870.25;1744687;82;21803;-41
2022/12/09 23:13:35;;;;;;;47.67;25.72;;;;;;;2.85;77.25;98864.69;1744399;82;20985;-40
2022/12/09 23:16:04;;;;;;;41.95;24.95;;;;;;;2.85;76.99;98851.30;1744443;82;21020;-40
2022/12/09 23:18:32;;;;;;;44.70;26.57;;;;;;;2.85;76.76;98851.30;1744877;82;20989;-40
2022/12/09 23:21:10;;;;;;;45.05;26.68;;;;;;;2.87;76.80;98846.40;1744857;82;22283;-40
2022/12/09 23:23:38;;;;;;;49.95;28.55;;;;;;;2.85;76.94;98846.50;1744619;82;21145;-41
2022/12/09 23:26:09;;;;;;;53.45;29.45;;;;;;;2.50;76.95;98790.41;1744821;82;21004;-40
2022/12/09 23:28:41;;;;;;;47.25;26.68;;;;;;;2.79;76.89;98837.06;1744716;82;20933;-40
2022/12/09 23:31:09;;;;;;;42.43;24.55;;;;;;;2.72;76.78;98844.24;1744505;81;21669;-41
2022/12/09 23:33:37;;;;;;;44.33;24.63;;;;;;;2.72;76.86;98846.13;1744603;82;21099;-41
2022/12/09 23:36:11;;;;;;;44.30;26.95;;;;;;;2.73;76.88;98855.19;1744627;81;21140;-40
2022/12/09 23:38:38;;;;;;;46.95;27.37;;;;;;;2.71;77.08;98857.97;1744511;82;20925;-40
2022/12/09 23:41:05;;;;;;;46.75;26.65;;;;;;;2.70;77.25;98863.87;1744339;82;21036;-40
2022/12/09 23:43:35;;;;;;;46.45;25.88;;;;;;;2.67;77.28;98857.80;1744189;82;21593;-40
2022/12/09 23:46:05;;;;;;;44.15;25.02;;;;;;;2.67;77.26;98853.78;1744590;82;21541;-40
2022/12/09 23:48:31;;;;;;;43.50;24.80;;;;;;;2.73;77.15;98856.52;1744461;82;22033;-41
2022/12/09 23:50:59;;;;;;;42.13;24.57;;;;;;;2.74;77.20;98853.30;1744260;82;21096;-40
2022/12/09 23:53:26;;;;;;;45.78;26.48;;;;;;;2.71;77.34;98843.25;1695650;82;21033;-41
2022/12/09 23:55:53;;;;;;;42.03;23.75;;;;;;;2.62;77.44;98833.33;1743760;82;20953;-40
2022/12/09 23:58:19;;;;;;;41.42;23.25;;;;;;;2.54;77.67;98826.67;1744300;82;21092;-40
